Time,TemperatureF,DewpointF,PressureIn,WindDirection,WindDirectionDegrees,WindSpeedMPH,WindSpeedGustMPH,Humidity,HourlyPrecipIn,Conditions,Clouds,dailyrainin,SoftwareType,DateUTC
2013-07-10 00:01:00,67.3,65.8,29.97,SW,219,0.0,10.0,95,0.00,,,0.11,Wunderground v.1.15,2013-07-10 04:01:00,
2013-07-10 00:02:00,67.4,65.9,29.97,SW,227,0.0,10.0,95,0.00,,,0.00,Wunderground v.1.15,2013-07-10 04:02:00,
2013-07-10 00:03:00,67.4,65.9,29.97,SW,228,0.0,10.0,95,0.00,,,0.00,Wunderground v.1.15,2013-07-10 04:03:00,
2013-07-10 00:06:00,67.5,66.0,29.97,SW,228,0.0,10.0,95,0.00,,,0.00,Wunderground v.1.15,2013-07-10 04:06:00,
2013-07-10 00:08:00,67.5,66.0,29.97,SW,228,0.0,10.0,95,0.00,,,0.00,Wunderground v.1.15,2013-07-10 04:08:00,
2013-07-10 00:13:00,67.5,66.0,29.97,WSW,248,0.0,10.0,95,0.00,,,0.00,Wunderground v.1.15,2013-07-10 04:13:00,
2013-07-10 00:19:00,67.7,66.2,29.97,WSW,248,0.0,10.0,95,0.00,,,0.00,Wunderground v.1.15,2013-07-10 04:19:00,
2013-07-10 00:25:00,67.6,66.1,29.96,WSW,248,0.0,10.0,95,0.00,,,0.00,Wunderground v.1.15,2013-07-10 04:25:00,
2013-07-10 00:30:00,67.4,65.9,29.96,WSW,247,0.0,10.0,95,0.00,,,0.00,Wunderground v.1.15,2013-07-10 04:30:00,
2013-07-10 00:35:00,67.2,65.7,29.96,WSW,248,0.0,10.0,95,0.00,,,0.00,Wunderground v.1.15,2013-07-10 04:35:00,
2013-07-10 00:40:00,66.8,65.3,29.96,WSW,248,0.0,10.0,95,0.00,,,0.00,Wunderground v.1.15,2013-07-10 04:40:00,
2013-07-10 00:45:00,66.6,65.4,29.95,WSW,248,0.0,10.0,96,0.00,,,0.00,Wunderground v.1.15,2013-07-10 04:45:00,
2013-07-10 00:51:00,66.4,65.2,29.95,WSW,248,0.0,10.0,96,0.00,,,0.00,Wunderground v.1.15,2013-07-10 04:51:00,
2013-07-10 00:56:00,66.2,65.0,29.95,WSW,248,0.0,10.0,96,0.00,,,0.00,Wunderground v.1.15,2013-07-10 04:56:00,
2013-07-10 01:01:00,66.1,64.9,29.95,WSW,248,0.0,10.0,96,0.00,,,0.00,Wunderground v.1.15,2013-07-10 05:01:00,
2013-07-10 01:06:00,66.0,64.8,29.95,WSW,247,0.0,10.0,96,0.00,,,0.00,Wunderground v.1.15,2013-07-10 05:06:00,
2013-07-10 01:11:00,66.1,65.2,29.94,WSW,245,0.0,10.0,97,0.00,,,0.00,Wunderground v.1.15,2013-07-10 05:11:00,
2013-07-10 01:16:00,66.0,65.1,29.94,WSW,245,0.0,10.0,97,0.00,,,0.00,Wunderground v.1.15,2013-07-10 05:16:00,
2013-07-10 01:21:00,66.1,65.2,29.94,WSW,248,0.0,10.0,97,0.00,,,0.00,Wunderground v.1.15,2013-07-10 05:21:00,
2013-07-10 01:26:00,66.1,65.2,29.93,WSW,247,0.0,10.0,97,0.00,,,0.00,Wunderground v.1.15,2013-07-10 05:26:00,
2013-07-10 01:32:00,65.9,65.0,29.94,NW,304,0.0,10.0,97,0.00,,,0.00,Wunderground v.1.15,2013-07-10 05:32:00,
2013-07-10 01:37:00,65.6,64.7,29.93,NW,304,1.0,10.0,97,0.00,,,0.00,Wunderground v.1.15,2013-07-10 05:37:00,
2013-07-10 01:42:00,65.5,64.6,29.93,NW,304,1.0,10.0,97,0.00,,,0.00,Wunderground v.1.15,2013-07-10 05:42:00,
2013-07-10 01:47:00,65.5,64.6,29.93,NW,306,0.0,10.0,97,0.00,,,0.00,Wunderground v.1.15,2013-07-10 05:47:00,
2013-07-10 01:52:00,65.6,64.7,29.93,North,6,0.0,10.0,97,0.00,,,0.00,Wunderground v.1.15,2013-07-10 05:52:00,
2013-07-10 01:57:00,65.6,64.7,29.93,North,7,0.0,10.0,97,0.00,,,0.00,Wunderground v.1.15,2013-07-10 05:57:00,
2013-07-10 02:02:00,65.5,64.6,29.93,North,6,0.0,10.0,97,0.00,,,0.00,Wunderground v.1.15,2013-07-10 06:02:00,
2013-07-10 02:07:00,65.6,64.7,29.93,North,6,0.0,10.0,97,0.00,,,0.00,Wunderground v.1.15,2013-07-10 06:07:00,
2013-07-10 02:13:00,66.0,65.4,29.93,North,6,0.0,10.0,98,0.00,,,0.00,Wunderground v.1.15,2013-07-10 06:13:00,
2013-07-10 02:19:00,66.3,65.7,29.93,ESE,105,0.0,10.0,98,0.00,,,0.00,Wunderground v.1.15,2013-07-10 06:19:00,
2013-07-10 02:24:00,66.6,66.0,29.93,SE,134,1.0,10.0,98,0.00,,,0.00,Wunderground v.1.15,2013-07-10 06:24:00,
2013-07-10 02:29:00,66.9,66.3,29.93,SW,224,1.0,10.0,98,0.00,,,0.00,Wunderground v.1.15,2013-07-10 06:29:00,
2013-07-10 02:34:00,67.1,66.2,29.93,SSW,193,1.0,10.0,97,0.00,,,0.00,Wunderground v.1.15,2013-07-10 06:34:00,
2013-07-10 02:39:00,67.4,66.5,29.93,WSW,238,1.0,10.0,97,0.00,,,0.00,Wunderground v.1.15,2013-07-10 06:39:00,
2013-07-10 02:44:00,67.5,66.3,29.93,WNW,299,1.0,10.0,96,0.00,,,0.00,Wunderground v.1.15,2013-07-10 06:44:00,
2013-07-10 02:49:00,67.6,66.4,29.92,SSW,203,1.0,10.0,96,0.00,,,0.00,Wunderground v.1.15,2013-07-10 06:49:00,
2013-07-10 02:54:00,67.7,66.5,29.92,WSW,243,0.0,10.0,96,0.00,,,0.00,Wunderground v.1.15,2013-07-10 06:54:00,
2013-07-10 02:59:00,67.8,66.3,29.92,South,187,1.0,10.0,95,0.00,,,0.00,Wunderground v.1.15,2013-07-10 06:59:00,
2013-07-10 03:05:00,67.9,66.4,29.92,West,260,2.0,10.0,95,0.00,,,0.00,Wunderground v.1.15,2013-07-10 07:05:00,
2013-07-10 03:10:00,68.0,66.2,29.92,South,191,1.0,10.0,94,0.00,,,0.00,Wunderground v.1.15,2013-07-10 07:10:00,
2013-07-10 03:15:00,67.9,66.1,29.92,West,266,1.0,10.0,94,0.00,,,0.00,Wunderground v.1.15,2013-07-10 07:15:00,
2013-07-10 03:20:00,67.8,66.0,29.91,ESE,105,1.0,1.0,94,0.00,,,0.00,Wunderground v.1.15,2013-07-10 07:20:00,
2013-07-10 03:25:00,67.7,65.9,29.91,SE,141,0.0,10.0,94,0.00,,,0.00,Wunderground v.1.15,2013-07-10 07:25:00,
2013-07-10 03:31:00,67.5,66.0,29.91,SW,233,0.0,10.0,95,0.00,,,0.00,Wunderground v.1.15,2013-07-10 07:31:00,
2013-07-10 03:36:00,67.4,65.9,29.91,WSW,248,0.0,10.0,95,0.00,,,0.00,Wunderground v.1.15,2013-07-10 07:36:00,
2013-07-10 03:41:00,67.4,65.9,29.91,ESE,106,0.0,10.0,95,0.00,,,0.00,Wunderground v.1.15,2013-07-10 07:41:00,
2013-07-10 03:46:00,67.4,65.9,29.91,SW,222,0.0,10.0,95,0.00,,,0.00,Wunderground v.1.15,2013-07-10 07:46:00,
2013-07-10 03:51:00,67.4,65.9,29.91,SW,221,0.0,10.0,95,0.00,,,0.00,Wunderground v.1.15,2013-07-10 07:51:00,
2013-07-10 03:57:00,67.5,66.0,29.91,WSW,245,0.0,10.0,95,0.00,,,0.00,Wunderground v.1.15,2013-07-10 07:57:00,
2013-07-10 04:02:00,67.6,66.1,29.91,WSW,255,0.0,10.0,95,0.00,,,0.00,Wunderground v.1.15,2013-07-10 08:02:00,
2013-07-10 04:07:00,67.7,66.2,29.91,WSW,240,1.0,10.0,95,0.00,,,0.00,Wunderground v.1.15,2013-07-10 08:07:00,
2013-07-10 04:12:00,67.8,66.3,29.91,WSW,240,1.0,10.0,95,0.00,,,0.00,Wunderground v.1.15,2013-07-10 08:12:00,
2013-07-10 04:17:00,67.9,66.1,29.91,SSW,195,1.0,10.0,94,0.00,,,0.00,Wunderground v.1.15,2013-07-10 08:17:00,
2013-07-10 04:23:00,68.0,66.2,29.91,SW,225,0.0,10.0,94,0.00,,,0.00,Wunderground v.1.15,2013-07-10 08:23:00,
2013-07-10 04:28:00,68.1,66.3,29.91,WSW,255,0.0,10.0,94,0.00,,,0.00,Wunderground v.1.15,2013-07-10 08:28:00,
2013-07-10 04:33:00,68.1,66.3,29.91,SE,141,1.0,10.0,94,0.00,,,0.00,Wunderground v.1.15,2013-07-10 08:33:00,
2013-07-10 04:38:00,68.1,66.3,29.91,SE,131,1.0,10.0,94,0.00,,,0.00,Wunderground v.1.15,2013-07-10 08:38:00,
2013-07-10 04:43:00,68.1,66.3,29.91,WSW,253,1.0,10.0,94,0.00,,,0.00,Wunderground v.1.15,2013-07-10 08:43:00,
2013-07-10 04:49:00,68.1,66.3,29.91,ENE,63,1.0,10.0,94,0.00,,,0.00,Wunderground v.1.15,2013-07-10 08:49:00,
2013-07-10 04:54:00,68.0,66.2,29.91,SW,221,0.0,10.0,94,0.00,,,0.00,Wunderground v.1.15,2013-07-10 08:54:00,
2013-07-10 04:59:00,68.1,66.3,29.91,ESE,110,0.0,10.0,94,0.00,,,0.00,Wunderground v.1.15,2013-07-10 08:59:00,
2013-07-10 05:04:00,68.2,66.4,29.91,SW,221,0.0,10.0,94,0.00,,,0.00,Wunderground v.1.15,2013-07-10 09:04:00,
2013-07-10 05:09:00,68.3,66.5,29.91,SW,224,1.0,10.0,94,0.00,,,0.00,Wunderground v.1.15,2013-07-10 09:09:00,
2013-07-10 05:15:00,68.5,66.7,29.91,SW,218,1.0,10.0,94,0.00,,,0.00,Wunderground v.1.15,2013-07-10 09:15:00,
2013-07-10 05:20:00,68.6,66.8,29.91,West,278,1.0,10.0,94,0.00,,,0.00,Wunderground v.1.15,2013-07-10 09:20:00,
2013-07-10 05:25:00,68.7,66.9,29.91,West,264,1.0,10.0,94,0.00,,,0.00,Wunderground v.1.15,2013-07-10 09:25:00,
2013-07-10 05:30:00,68.8,66.7,29.91,WSW,255,1.0,1.0,93,0.00,,,0.00,Wunderground v.1.15,2013-07-10 09:30:00,
2013-07-10 05:35:00,68.9,66.8,29.91,WSW,245,1.0,10.0,93,0.00,,,0.00,Wunderground v.1.15,2013-07-10 09:35:00,
2013-07-10 05:41:00,69.1,67.0,29.91,WSW,245,1.0,10.0,93,0.00,,,0.00,Wunderground v.1.15,2013-07-10 09:41:00,
2013-07-10 05:46:00,69.2,67.1,29.90,WSW,238,1.0,10.0,93,0.00,,,0.00,Wunderground v.1.15,2013-07-10 09:46:00,
2013-07-10 05:51:00,69.2,67.1,29.91,SSW,210,1.0,10.0,93,0.00,,,0.00,Wunderground v.1.15,2013-07-10 09:51:00,
2013-07-10 05:56:00,69.2,67.1,29.91,WSW,240,1.0,10.0,93,0.00,,,0.00,Wunderground v.1.15,2013-07-10 09:56:00,
2013-07-10 06:01:00,69.3,67.2,29.91,WSW,238,1.0,10.0,93,0.00,,,0.00,Wunderground v.1.15,2013-07-10 10:01:00,
2013-07-10 06:07:00,69.3,67.2,29.90,SE,141,1.0,10.0,93,0.00,,,0.00,Wunderground v.1.15,2013-07-10 10:07:00,
2013-07-10 06:12:00,69.3,67.2,29.90,SW,215,0.0,10.0,93,0.00,,,0.00,Wunderground v.1.15,2013-07-10 10:12:00,
2013-07-10 06:17:00,69.3,67.5,29.90,SW,221,0.0,10.0,94,0.00,,,0.00,Wunderground v.1.15,2013-07-10 10:17:00,
2013-07-10 06:22:00,69.4,67.3,29.90,SE,127,1.0,10.0,93,0.00,,,0.00,Wunderground v.1.15,2013-07-10 10:22:00,
2013-07-10 06:27:00,69.4,67.3,29.90,West,264,1.0,10.0,93,0.00,,,0.00,Wunderground v.1.15,2013-07-10 10:27:00,
2013-07-10 06:32:00,69.6,67.5,29.90,ESE,109,0.0,10.0,93,0.00,,,0.00,Wunderground v.1.15,2013-07-10 10:32:00,
2013-07-10 06:37:00,69.6,67.5,29.90,WSW,238,1.0,10.0,93,0.00,,,0.00,Wunderground v.1.15,2013-07-10 10:37:00,
2013-07-10 06:42:00,69.8,67.7,29.89,NNW,342,0.0,10.0,93,0.00,,,0.00,Wunderground v.1.15,2013-07-10 10:42:00,
2013-07-10 06:48:00,69.9,67.8,29.89,WSW,251,0.0,10.0,93,0.00,,,0.00,Wunderground v.1.15,2013-07-10 10:48:00,
2013-07-10 06:53:00,70.1,68.0,29.89,WSW,245,1.0,10.0,93,0.00,,,0.00,Wunderground v.1.15,2013-07-10 10:53:00,
2013-07-10 06:58:00,70.2,67.8,29.89,SW,226,1.0,10.0,92,0.00,,,0.00,Wunderground v.1.15,2013-07-10 10:58:00,
2013-07-10 07:03:00,70.3,67.9,29.89,ESE,123,0.0,10.0,92,0.00,,,0.00,Wunderground v.1.15,2013-07-10 11:03:00,
2013-07-10 07:08:00,70.4,68.0,29.89,SSE,165,1.0,10.0,92,0.00,,,0.00,Wunderground v.1.15,2013-07-10 11:08:00,
2013-07-10 07:13:00,70.4,68.0,29.89,WSW,253,1.0,10.0,92,0.00,,,0.00,Wunderground v.1.15,2013-07-10 11:13:00,
2013-07-10 07:18:00,70.5,68.1,29.89,SSE,152,0.0,10.0,92,0.00,,,0.00,Wunderground v.1.15,2013-07-10 11:18:00,
2013-07-10 07:23:00,70.6,68.2,29.89,South,184,0.0,10.0,92,0.00,,,0.00,Wunderground v.1.15,2013-07-10 11:23:00,
2013-07-10 07:29:00,70.7,68.3,29.89,SSW,211,0.0,10.0,92,0.00,,,0.00,Wunderground v.1.15,2013-07-10 11:29:00,
2013-07-10 07:34:00,70.9,68.1,29.89,WSW,238,1.0,10.0,91,0.00,,,0.00,Wunderground v.1.15,2013-07-10 11:34:00,
2013-07-10 07:39:00,71.0,68.2,29.89,West,276,1.0,10.0,91,0.00,,,0.00,Wunderground v.1.15,2013-07-10 11:39:00,
2013-07-10 07:44:00,71.1,68.3,29.89,West,259,1.0,10.0,91,0.00,,,0.00,Wunderground v.1.15,2013-07-10 11:44:00,
2013-07-10 07:49:00,71.1,68.3,29.88,West,281,1.0,10.0,91,0.00,,,0.00,Wunderground v.1.15,2013-07-10 11:49:00,
2013-07-10 07:55:00,71.1,68.3,29.88,WSW,253,2.0,10.0,91,0.00,,,0.00,Wunderground v.1.15,2013-07-10 11:55:00,
2013-07-10 08:00:00,71.2,68.4,29.88,WSW,238,1.0,10.0,91,0.00,,,0.00,Wunderground v.1.15,2013-07-10 12:00:00,
2013-07-10 08:05:00,71.2,68.4,29.89,WSW,248,1.0,10.0,91,0.00,,,0.00,Wunderground v.1.15,2013-07-10 12:05:00,
2013-07-10 08:10:00,71.3,68.2,29.89,WSW,237,2.0,10.0,90,0.00,,,0.00,Wunderground v.1.15,2013-07-10 12:10:00,
2013-07-10 08:15:00,71.3,68.2,29.88,WSW,253,2.0,10.0,90,0.00,,,0.00,Wunderground v.1.15,2013-07-10 12:15:00,
2013-07-10 08:21:00,71.4,68.3,29.88,SW,226,2.0,10.0,90,0.00,,,0.00,Wunderground v.1.15,2013-07-10 12:21:00,
2013-07-10 08:26:00,71.3,68.2,29.88,WSW,249,1.0,10.0,90,0.00,,,0.00,Wunderground v.1.15,2013-07-10 12:26:00,
2013-07-10 08:31:00,71.3,68.5,29.88,South,180,1.0,10.0,91,0.00,,,0.00,Wunderground v.1.15,2013-07-10 12:31:00,
2013-07-10 08:36:00,71.2,68.4,29.88,SSW,205,1.0,10.0,91,0.00,,,0.00,Wunderground v.1.15,2013-07-10 12:36:00,
2013-07-10 08:41:00,71.3,68.5,29.88,WSW,249,1.0,10.0,91,0.00,,,0.00,Wunderground v.1.15,2013-07-10 12:41:00,
2013-07-10 08:47:00,71.3,68.5,29.88,West,273,2.0,10.0,91,0.00,,,0.00,Wunderground v.1.15,2013-07-10 12:47:00,
2013-07-10 08:52:00,71.4,68.6,29.88,SW,225,2.0,10.0,91,0.00,,,0.00,Wunderground v.1.15,2013-07-10 12:52:00,
2013-07-10 08:57:00,71.7,68.9,29.88,West,266,2.0,10.0,91,0.00,,,0.00,Wunderground v.1.15,2013-07-10 12:57:00,
2013-07-10 09:02:00,71.8,69.0,29.88,West,270,2.0,10.0,91,0.00,,,0.00,Wunderground v.1.15,2013-07-10 13:02:00,
2013-07-10 09:07:00,71.8,69.0,29.88,West,262,2.0,10.0,91,0.00,,,0.00,Wunderground v.1.15,2013-07-10 13:07:00,
2013-07-10 09:13:00,71.7,68.6,29.87,South,178,2.0,10.0,90,0.00,,,0.00,Wunderground v.1.15,2013-07-10 13:13:00,
2013-07-10 09:18:00,71.7,68.6,29.87,WSW,250,2.0,10.0,90,0.00,,,0.00,Wunderground v.1.15,2013-07-10 13:18:00,
2013-07-10 09:23:00,71.8,68.7,29.87,ENE,63,1.0,10.0,90,0.00,,,0.00,Wunderground v.1.15,2013-07-10 13:23:00,
2013-07-10 09:28:00,71.9,68.8,29.87,North,360,1.0,10.0,90,0.00,,,0.00,Wunderground v.1.15,2013-07-10 13:28:00,
2013-07-10 09:33:00,72.1,69.0,29.86,WNW,297,1.0,10.0,90,0.00,,,0.00,Wunderground v.1.15,2013-07-10 13:33:00,
2013-07-10 09:39:00,72.1,68.7,29.86,WSW,253,2.0,10.0,89,0.00,,,0.00,Wunderground v.1.15,2013-07-10 13:39:00,
2013-07-10 09:44:00,72.0,68.6,29.86,SSW,212,2.0,10.0,89,0.00,,,0.00,Wunderground v.1.15,2013-07-10 13:44:00,
2013-07-10 09:49:00,72.0,68.9,29.86,ESE,117,1.0,10.0,90,0.00,,,0.00,Wunderground v.1.15,2013-07-10 13:49:00,
2013-07-10 09:54:00,72.1,69.0,29.86,SSW,212,1.0,10.0,90,0.00,,,0.00,Wunderground v.1.15,2013-07-10 13:54:00,
2013-07-10 09:59:00,72.0,68.6,29.86,ESE,121,1.0,10.0,89,0.00,,,0.00,Wunderground v.1.15,2013-07-10 13:59:00,
2013-07-10 10:05:00,72.0,68.9,29.85,WSW,242,1.0,10.0,90,0.00,,,0.00,Wunderground v.1.15,2013-07-10 14:05:00,
2013-07-10 10:10:00,72.0,68.9,29.86,WSW,250,1.0,10.0,90,0.00,,,0.00,Wunderground v.1.15,2013-07-10 14:10:00,
2013-07-10 10:15:00,71.9,68.8,29.86,SW,217,2.0,10.0,90,0.00,,,0.00,Wunderground v.1.15,2013-07-10 14:15:00,
2013-07-10 10:20:00,71.9,68.8,29.86,SW,217,2.0,10.0,90,0.00,,,0.00,Wunderground v.1.15,2013-07-10 14:20:00,
2013-07-10 10:25:00,72.0,68.9,29.86,SW,219,2.0,10.0,90,0.00,,,0.00,Wunderground v.1.15,2013-07-10 14:25:00,
2013-07-10 10:31:00,72.2,69.1,29.86,NNW,331,2.0,10.0,90,0.00,,,0.00,Wunderground v.1.15,2013-07-10 14:31:00,
2013-07-10 10:36:00,72.2,68.8,29.86,North,10,2.0,10.0,89,0.00,,,0.00,Wunderground v.1.15,2013-07-10 14:36:00,
2013-07-10 10:41:00,72.2,68.8,29.86,SW,228,2.0,10.0,89,0.00,,,0.00,Wunderground v.1.15,2013-07-10 14:41:00,
2013-07-10 10:46:00,72.0,68.6,29.86,SW,233,2.0,10.0,89,0.00,,,0.00,Wunderground v.1.15,2013-07-10 14:46:00,
2013-07-10 10:51:00,71.8,68.4,29.86,SW,233,3.0,10.0,89,0.00,,,0.00,Wunderground v.1.15,2013-07-10 14:51:00,
2013-07-10 10:57:00,72.1,68.7,29.84,ENE,60,2.0,10.0,89,0.00,,,0.00,Wunderground v.1.15,2013-07-10 14:57:00,
2013-07-10 11:02:00,73.2,69.8,29.85,SE,136,2.0,10.0,89,0.00,,,0.00,Wunderground v.1.15,2013-07-10 15:02:00,
2013-07-10 11:07:00,74.3,70.2,29.85,SW,214,2.0,10.0,87,0.00,,,0.00,Wunderground v.1.15,2013-07-10 15:07:00,
2013-07-10 11:12:00,75.6,70.4,29.84,SW,218,2.0,10.0,84,0.00,,,0.00,Wunderground v.1.15,2013-07-10 15:12:00,
2013-07-10 11:17:00,76.1,70.2,29.84,WNW,283,3.0,10.0,82,0.00,,,0.00,Wunderground v.1.15,2013-07-10 15:17:00,
2013-07-10 11:23:00,76.7,71.1,29.84,NNE,29,3.0,10.0,83,0.00,,,0.00,Wunderground v.1.15,2013-07-10 15:23:00,
2013-07-10 11:28:00,77.5,71.6,29.84,SE,136,2.0,10.0,82,0.00,,,0.00,Wunderground v.1.15,2013-07-10 15:28:00,
2013-07-10 11:33:00,77.1,69.7,29.84,SW,225,2.0,10.0,78,0.00,,,0.00,Wunderground v.1.15,2013-07-10 15:33:00,
2013-07-10 11:38:00,76.7,70.8,29.84,WSW,240,2.0,10.0,82,0.00,,,0.00,Wunderground v.1.15,2013-07-10 15:38:00,
2013-07-10 11:43:00,76.4,69.8,29.83,WSW,253,3.0,10.0,80,0.00,,,0.00,Wunderground v.1.15,2013-07-10 15:43:00,
2013-07-10 11:49:00,76.0,70.1,29.83,West,279,3.0,10.0,82,0.00,,,0.00,Wunderground v.1.15,2013-07-10 15:49:00,
2013-07-10 11:54:00,75.7,69.5,29.83,SSW,207,2.0,10.0,81,0.00,,,0.00,Wunderground v.1.15,2013-07-10 15:54:00,
2013-07-10 11:59:00,75.3,69.4,29.83,WSW,253,2.0,10.0,82,0.00,,,0.00,Wunderground v.1.15,2013-07-10 15:59:00,
2013-07-10 12:04:00,75.0,69.8,29.83,West,275,2.0,10.0,84,0.00,,,0.00,Wunderground v.1.15,2013-07-10 16:04:00,
2013-07-10 12:09:00,74.7,69.5,29.83,SW,219,2.0,10.0,84,0.00,,,0.00,Wunderground v.1.15,2013-07-10 16:09:00,
2013-07-10 12:15:00,74.4,69.9,29.83,WSW,256,2.0,10.0,86,0.00,,,0.00,Wunderground v.1.15,2013-07-10 16:15:00,
2013-07-10 12:20:00,74.5,70.0,29.82,West,281,2.0,10.0,86,0.00,,,0.00,Wunderground v.1.15,2013-07-10 16:20:00,
2013-07-10 12:25:00,75.0,70.9,29.82,NNE,17,1.0,10.0,87,0.00,,,0.00,Wunderground v.1.15,2013-07-10 16:25:00,
2013-07-10 12:30:00,75.2,70.0,29.82,South,173,2.0,2.0,84,0.00,,,0.00,Wunderground v.1.15,2013-07-10 16:30:00,
2013-07-10 12:35:00,75.0,69.8,29.82,SSW,194,2.0,10.0,84,0.00,,,0.00,Wunderground v.1.15,2013-07-10 16:35:00,
2013-07-10 12:41:00,74.2,70.1,29.82,SSW,195,2.0,10.0,87,0.67,,,0.03,Wunderground v.1.15,2013-07-10 16:41:00,
2013-07-10 12:46:00,73.3,69.5,29.82,SSE,153,2.0,10.0,88,0.13,,,0.04,Wunderground v.1.15,2013-07-10 16:46:00,
2013-07-10 12:51:00,72.7,69.6,29.82,SW,225,2.0,10.0,90,0.08,,,0.05,Wunderground v.1.15,2013-07-10 16:51:00,
2013-07-10 12:56:00,72.2,69.4,29.82,WNW,298,2.0,10.0,91,0.12,,,0.06,Wunderground v.1.15,2013-07-10 16:56:00,
2013-07-10 13:01:00,71.7,69.3,29.83,SW,229,2.0,10.0,92,0.14,,,0.07,Wunderground v.1.15,2013-07-10 17:01:00,
2013-07-10 13:06:00,71.6,69.5,29.82,NW,308,2.0,10.0,93,0.07,,,0.07,Wunderground v.1.15,2013-07-10 17:06:00,
2013-07-10 13:12:00,71.9,70.1,29.82,SSW,203,2.0,10.0,94,0.04,,,0.07,Wunderground v.1.15,2013-07-10 17:12:00,
2013-07-10 13:17:00,72.7,70.9,29.82,North,349,2.0,10.0,94,0.00,,,0.07,Wunderground v.1.15,2013-07-10 17:17:00,
2013-07-10 13:22:00,72.9,70.8,29.82,SSE,148,1.0,10.0,93,0.00,,,0.07,Wunderground v.1.15,2013-07-10 17:22:00,
2013-07-10 13:27:00,72.6,70.1,29.82,WSW,237,1.0,10.0,92,0.00,,,0.07,Wunderground v.1.15,2013-07-10 17:27:00,
2013-07-10 13:32:00,72.3,70.2,29.81,SE,135,1.0,10.0,93,0.00,,,0.07,Wunderground v.1.15,2013-07-10 17:32:00,
2013-07-10 13:37:00,72.0,69.9,29.81,WNW,292,1.0,10.0,93,0.00,,,0.08,Wunderground v.1.15,2013-07-10 17:37:00,
2013-07-10 13:42:00,71.5,69.7,29.83,West,281,1.0,10.0,94,6.19,,,0.29,Wunderground v.1.15,2013-07-10 17:42:00,
2013-07-10 13:47:00,70.6,68.5,29.82,North,5,2.0,10.0,93,0.53,,,0.53,Wunderground v.1.15,2013-07-10 17:47:00,
2013-07-10 13:52:00,70.4,68.9,29.82,West,275,3.0,10.0,95,0.70,,,0.59,Wunderground v.1.15,2013-07-10 17:52:00,
2013-07-10 13:57:00,70.3,69.1,29.82,WNW,298,2.0,10.0,96,0.11,,,0.59,Wunderground v.1.15,2013-07-10 17:57:00,
2013-07-10 14:02:00,70.4,69.2,29.81,SW,233,2.0,10.0,96,0.06,,,0.59,Wunderground v.1.15,2013-07-10 18:02:00,
2013-07-10 14:07:00,70.7,69.5,29.81,West,264,1.0,10.0,96,0.05,,,0.60,Wunderground v.1.15,2013-07-10 18:07:00,
2013-07-10 14:12:00,71.0,69.8,29.81,WSW,255,1.0,10.0,96,0.11,,,0.61,Wunderground v.1.15,2013-07-10 18:12:00,
2013-07-10 14:18:00,71.0,69.8,29.81,WSW,240,2.0,10.0,96,0.09,,,0.62,Wunderground v.1.15,2013-07-10 18:18:00,
2013-07-10 14:23:00,71.4,70.2,29.80,South,188,1.0,10.0,96,0.09,,,0.62,Wunderground v.1.15,2013-07-10 18:23:00,
2013-07-10 14:28:00,71.5,70.3,29.80,WSW,240,2.0,10.0,96,0.05,,,0.62,Wunderground v.1.15,2013-07-10 18:28:00,
2013-07-10 14:34:00,72.0,70.8,29.80,WNW,284,2.0,10.0,96,0.00,,,0.62,Wunderground v.1.15,2013-07-10 18:34:00,
2013-07-10 14:39:00,72.3,71.1,29.79,WSW,239,1.0,10.0,96,0.00,,,0.62,Wunderground v.1.15,2013-07-10 18:39:00,
2013-07-10 14:44:00,72.1,70.6,29.79,SE,140,1.0,10.0,95,0.00,,,0.62,Wunderground v.1.15,2013-07-10 18:44:00,
2013-07-10 14:49:00,72.2,70.7,29.79,SSW,212,1.0,10.0,95,0.00,,,0.62,Wunderground v.1.15,2013-07-10 18:49:00,
2013-07-10 14:54:00,72.3,71.1,29.79,WSW,245,2.0,10.0,96,0.00,,,0.62,Wunderground v.1.15,2013-07-10 18:54:00,
2013-07-10 15:00:00,72.1,70.3,29.79,South,191,2.0,10.0,94,0.00,,,0.62,Wunderground v.1.15,2013-07-10 19:00:00,
2013-07-10 15:05:00,72.2,70.7,29.79,WSW,238,2.0,10.0,95,0.00,,,0.62,Wunderground v.1.15,2013-07-10 19:05:00,
2013-07-10 15:10:00,72.7,71.2,29.78,SSW,205,2.0,10.0,95,0.00,,,0.62,Wunderground v.1.15,2013-07-10 19:10:00,
2013-07-10 15:15:00,73.7,72.2,29.78,East,91,2.0,10.0,95,0.00,,,0.62,Wunderground v.1.15,2013-07-10 19:15:00,
2013-07-10 15:20:00,73.9,72.1,29.78,NW,309,2.0,10.0,94,0.00,,,0.62,Wunderground v.1.15,2013-07-10 19:20:00,
2013-07-10 15:26:00,74.0,71.5,29.78,SSW,205,2.0,10.0,92,0.00,,,0.62,Wunderground v.1.15,2013-07-10 19:26:00,
2013-07-10 15:32:00,73.4,70.9,29.78,NW,307,3.0,10.0,92,0.00,,,0.62,Wunderground v.1.15,2013-07-10 19:32:00,
2013-07-10 15:37:00,73.4,71.3,29.78,NW,318,2.0,10.0,93,0.00,,,0.62,Wunderground v.1.15,2013-07-10 19:37:00,
2013-07-10 15:43:00,73.1,70.3,29.79,WSW,250,2.0,10.0,91,0.00,,,0.62,Wunderground v.1.15,2013-07-10 19:43:00,
2013-07-10 15:48:00,72.9,70.1,29.79,WSW,245,3.0,10.0,91,0.00,,,0.62,Wunderground v.1.15,2013-07-10 19:48:00,
2013-07-10 15:53:00,72.7,69.9,29.78,NNW,328,2.0,10.0,91,0.00,,,0.62,Wunderground v.1.15,2013-07-10 19:53:00,
2013-07-10 15:58:00,72.8,70.0,29.78,SSW,204,2.0,10.0,91,0.00,,,0.62,Wunderground v.1.15,2013-07-10 19:58:00,
2013-07-10 16:03:00,72.9,70.1,29.78,SW,225,3.0,10.0,91,0.00,,,0.62,Wunderground v.1.15,2013-07-10 20:03:00,
2013-07-10 16:08:00,73.0,69.9,29.79,WSW,257,3.0,10.0,90,0.00,,,0.62,Wunderground v.1.15,2013-07-10 20:08:00,
2013-07-10 16:13:00,73.2,70.1,29.78,NW,311,3.0,10.0,90,0.00,,,0.62,Wunderground v.1.15,2013-07-10 20:13:00,
2013-07-10 16:18:00,73.3,70.2,29.79,WSW,248,3.0,10.0,90,0.00,,,0.62,Wunderground v.1.15,2013-07-10 20:18:00,
2013-07-10 16:23:00,73.5,69.7,29.78,SSE,165,3.0,10.0,88,0.00,,,0.62,Wunderground v.1.15,2013-07-10 20:23:00,
2013-07-10 16:28:00,73.7,69.9,29.78,WNW,283,3.0,10.0,88,0.00,,,0.62,Wunderground v.1.15,2013-07-10 20:28:00,
2013-07-10 16:33:00,74.0,70.2,29.78,West,262,3.0,10.0,88,0.00,,,0.62,Wunderground v.1.15,2013-07-10 20:33:00,
2013-07-10 16:38:00,74.4,70.6,29.78,SSW,205,3.0,10.0,88,0.00,,,0.62,Wunderground v.1.15,2013-07-10 20:38:00,
2013-07-10 16:44:00,75.0,70.5,29.78,SW,226,3.0,10.0,86,0.00,,,0.62,Wunderground v.1.15,2013-07-10 20:44:00,
2013-07-10 16:49:00,75.8,71.7,29.78,WSW,256,3.0,10.0,87,0.00,,,0.62,Wunderground v.1.15,2013-07-10 20:49:00,
2013-07-10 16:54:00,76.1,71.3,29.78,West,261,2.0,10.0,85,0.00,,,0.62,Wunderground v.1.15,2013-07-10 20:54:00,
2013-07-10 16:59:00,76.4,70.9,29.77,NW,307,3.0,10.0,83,0.00,,,0.62,Wunderground v.1.15,2013-07-10 20:59:00,
2013-07-10 17:04:00,76.5,70.6,29.77,ENE,59,3.0,10.0,82,0.00,,,0.62,Wunderground v.1.15,2013-07-10 21:04:00,
2013-07-10 17:10:00,76.0,70.5,29.77,WSW,254,2.0,10.0,83,0.00,,,0.62,Wunderground v.1.15,2013-07-10 21:10:00,
2013-07-10 17:15:00,75.5,70.3,29.78,SW,236,2.0,10.0,84,0.00,,,0.62,Wunderground v.1.15,2013-07-10 21:15:00,
2013-07-10 17:20:00,75.5,70.3,29.77,ESE,117,3.0,3.0,84,0.00,,,0.62,Wunderground v.1.15,2013-07-10 21:20:00,
2013-07-10 17:25:00,75.7,70.5,29.77,West,278,2.0,10.0,84,0.00,,,0.62,Wunderground v.1.15,2013-07-10 21:25:00,
2013-07-10 17:30:00,75.2,70.4,29.78,West,260,2.0,2.0,85,0.00,,,0.62,Wunderground v.1.15,2013-07-10 21:30:00,
2013-07-10 17:35:00,75.6,70.8,29.77,West,267,2.0,9.0,85,0.00,,,0.62,Wunderground v.1.15,2013-07-10 21:35:00,
2013-07-10 17:40:00,75.8,71.0,29.77,ENE,75,2.0,9.0,85,0.00,,,0.62,Wunderground v.1.15,2013-07-10 21:40:00,
2013-07-10 17:46:00,75.3,70.1,29.77,South,180,2.0,9.0,84,0.00,,,0.62,Wunderground v.1.15,2013-07-10 21:46:00,
2013-07-10 17:52:00,75.1,69.6,29.77,NW,316,2.0,9.0,83,0.00,,,0.62,Wunderground v.1.15,2013-07-10 21:52:00,
2013-07-10 17:58:00,76.0,70.1,29.77,WNW,292,3.0,9.0,82,0.00,,,0.62,Wunderground v.1.15,2013-07-10 21:58:00,
2013-07-10 18:04:00,76.8,70.2,29.77,SSW,193,3.0,9.0,80,0.00,,,0.62,Wunderground v.1.15,2013-07-10 22:04:00,
2013-07-10 18:10:00,77.3,69.9,29.77,NNW,329,3.0,3.0,78,0.00,,,0.62,Wunderground v.1.15,2013-07-10 22:10:00,
2013-07-10 18:16:00,77.2,69.8,29.78,SW,230,3.0,9.0,78,0.00,,,0.62,Wunderground v.1.15,2013-07-10 22:16:00,
2013-07-10 18:21:00,77.1,70.5,29.78,WNW,297,3.0,9.0,80,0.00,,,0.62,Wunderground v.1.15,2013-07-10 22:21:00,
2013-07-10 18:27:00,76.3,70.0,29.78,SSW,209,3.0,9.0,81,0.00,,,0.62,Wunderground v.1.15,2013-07-10 22:27:00,
2013-07-10 18:33:00,76.6,70.0,29.77,WNW,301,2.0,9.0,80,0.00,,,0.62,Wunderground v.1.15,2013-07-10 22:33:00,
2013-07-10 18:39:00,76.9,70.3,29.78,SW,224,2.0,9.0,80,0.00,,,0.62,Wunderground v.1.15,2013-07-10 22:39:00,
2013-07-10 18:45:00,77.1,70.1,29.78,WSW,248,2.0,9.0,79,0.00,,,0.62,Wunderground v.1.15,2013-07-10 22:45:00,
2013-07-10 18:51:00,76.9,69.9,29.78,SW,233,1.0,9.0,79,0.00,,,0.62,Wunderground v.1.15,2013-07-10 22:51:00,
2013-07-10 18:57:00,76.5,69.9,29.78,WNW,301,1.0,9.0,80,0.00,,,0.62,Wunderground v.1.15,2013-07-10 22:57:00,
2013-07-10 19:02:00,76.2,69.9,29.78,WNW,288,1.0,9.0,81,0.00,,,0.62,Wunderground v.1.15,2013-07-10 23:02:00,